createdAt,value
2023-02-02T00:00:48.281Z,6.39
2023-02-02T00:01:48.289Z,6.36
2023-02-02T00:02:48.313Z,6.28
2023-02-02T00:03:48.265Z,6.20
2023-02-02T00:04:49.245Z,6.42
2023-02-02T00:05:48.220Z,6.42
2023-02-02T00:06:48.217Z,6.49
2023-02-02T00:07:48.227Z,6.48
2023-02-02T00:08:48.187Z,6.54
2023-02-02T00:09:49.212Z,6.54
2023-02-02T00:10:48.168Z,6.63
2023-02-02T00:11:49.187Z,6.67
2023-02-02T00:12:48.157Z,6.60
2023-02-02T00:13:48.169Z,6.62
2023-02-02T00:14:48.163Z,6.57
2023-02-02T00:15:48.127Z,6.57
2023-02-02T00:16:48.142Z,6.62
2023-02-02T00:17:48.119Z,6.64
2023-02-02T00:18:48.115Z,6.70
2023-02-02T00:19:48.105Z,6.60
2023-02-02T00:20:48.100Z,6.66
2023-02-02T00:21:48.059Z,6.56
2023-02-02T00:22:48.076Z,6.41
2023-02-02T00:23:48.064Z,6.56
2023-02-02T00:24:48.055Z,6.60
2023-02-02T00:25:49.059Z,6.51
2023-02-02T00:26:49.039Z,6.57
2023-02-02T00:27:48.006Z,6.36
2023-02-02T00:28:48.979Z,6.39
2023-02-02T00:29:47.961Z,6.57
2023-02-02T00:30:47.986Z,6.52
2023-02-02T00:31:48.047Z,6.63
2023-02-02T00:32:47.940Z,6.63
2023-02-02T00:33:47.933Z,6.81
2023-02-02T00:34:47.928Z,6.69
2023-02-02T00:35:49.451Z,6.69
2023-02-02T00:36:47.913Z,6.72
2023-02-02T00:37:47.922Z,6.67
2023-02-02T00:38:47.890Z,6.64
2023-02-02T00:39:47.865Z,6.70
2023-02-02T00:40:47.859Z,6.77
2023-02-02T00:41:47.850Z,6.69
2023-02-02T00:42:48.861Z,6.70
2023-02-02T00:43:47.873Z,6.75
2023-02-02T00:44:47.804Z,6.66
2023-02-02T00:45:47.822Z,6.67
2023-02-02T00:46:47.813Z,6.59
2023-02-02T00:47:47.794Z,6.64
2023-02-02T00:48:47.807Z,6.59
2023-02-02T00:49:47.788Z,6.81
2023-02-02T00:50:48.776Z,6.78
2023-02-02T00:51:47.785Z,6.77
2023-02-02T00:52:47.755Z,6.78
2023-02-02T00:53:47.730Z,6.89
2023-02-02T00:54:47.722Z,6.88
2023-02-02T00:55:48.703Z,6.93
2023-02-02T00:56:47.682Z,6.93
2023-02-02T00:57:47.754Z,6.89
2023-02-02T00:58:47.700Z,6.92
2023-02-02T00:59:47.651Z,6.96
2023-02-02T01:00:47.730Z,6.97
2023-02-02T01:01:47.685Z,6.96
2023-02-02T01:02:47.618Z,6.77
2023-02-02T01:03:47.658Z,6.79
2023-02-02T01:04:47.584Z,6.85
2023-02-02T01:05:47.591Z,6.85
2023-02-02T01:06:47.598Z,6.89
2023-02-02T01:07:48.566Z,6.82
2023-02-02T01:08:47.559Z,6.89
2023-02-02T01:09:47.587Z,6.97
2023-02-02T01:10:47.533Z,6.92
2023-02-02T01:11:47.529Z,7.05
2023-02-02T01:12:47.532Z,7.06
2023-02-02T01:13:47.507Z,6.97
2023-02-02T01:14:47.529Z,7.00
2023-02-02T01:15:47.489Z,6.89
2023-02-02T01:16:47.529Z,6.84
2023-02-02T01:17:47.462Z,7.05
2023-02-02T01:18:47.466Z,7.03
2023-02-02T01:19:48.473Z,7.02
2023-02-02T01:20:48.421Z,6.92
2023-02-02T01:21:48.485Z,6.96
2023-02-02T01:22:47.405Z,6.97
2023-02-02T01:23:47.429Z,6.89
2023-02-02T01:24:48.436Z,7.02
2023-02-02T01:25:47.376Z,6.92
2023-02-02T01:26:47.414Z,6.92
2023-02-02T01:27:48.345Z,6.97
2023-02-02T01:28:47.373Z,7.10
2023-02-02T01:29:47.341Z,7.03
2023-02-02T01:30:47.351Z,6.99
2023-02-02T01:31:47.341Z,6.97
2023-02-02T01:32:47.302Z,6.84
2023-02-02T01:33:47.299Z,6.79
2023-02-02T01:34:48.290Z,6.82
2023-02-02T01:35:47.292Z,7.00
2023-02-02T01:36:47.247Z,6.82
2023-02-02T01:37:47.257Z,6.81
2023-02-02T01:38:47.227Z,6.85
2023-02-02T01:39:47.240Z,6.88
2023-02-02T01:40:48.242Z,6.82
2023-02-02T01:41:47.233Z,6.84
2023-02-02T01:42:48.194Z,6.78
2023-02-02T01:43:47.172Z,6.85
2023-02-02T01:44:47.160Z,6.88
2023-02-02T01:45:48.200Z,6.88
2023-02-02T01:46:47.140Z,6.84
2023-02-02T01:47:47.246Z,6.72
2023-02-02T01:48:47.116Z,6.62
2023-02-02T01:49:47.122Z,6.67
2023-02-02T01:50:47.128Z,6.69
2023-02-02T01:51:47.133Z,6.63
2023-02-02T01:52:47.498Z,6.52
2023-02-02T01:53:47.099Z,6.62
2023-02-02T01:54:48.084Z,6.41
2023-02-02T01:55:47.054Z,6.48
2023-02-02T01:56:47.031Z,6.44
2023-02-02T01:57:47.015Z,6.60
2023-02-02T01:58:47.025Z,6.60
2023-02-02T01:59:47.025Z,6.54
2023-02-02T02:00:47.243Z,6.66
2023-02-02T02:01:46.989Z,6.62
2023-02-02T02:02:47.072Z,6.62
2023-02-02T02:03:46.975Z,6.63
2023-02-02T02:04:46.989Z,6.59
2023-02-02T02:05:47.080Z,6.60
2023-02-02T02:06:46.968Z,6.60
2023-02-02T02:07:46.945Z,6.57
2023-02-02T02:08:46.934Z,6.51
2023-02-02T02:09:46.921Z,6.41
2023-02-02T02:10:47.014Z,6.60
2023-02-02T02:11:46.890Z,6.67
2023-02-02T02:12:46.870Z,6.41
2023-02-02T02:13:46.862Z,6.56
2023-02-02T02:14:47.882Z,6.60
2023-02-02T02:15:46.826Z,6.62
2023-02-02T02:16:47.903Z,6.67
2023-02-02T02:17:46.849Z,6.66
2023-02-02T02:18:46.813Z,6.77
2023-02-02T02:19:47.824Z,6.82
2023-02-02T02:20:46.806Z,6.74
2023-02-02T02:21:47.784Z,6.63
2023-02-02T02:22:46.768Z,6.63
2023-02-02T02:23:46.759Z,6.62
2023-02-02T02:24:46.773Z,6.56
2023-02-02T02:25:46.798Z,6.63
2023-02-02T02:26:46.757Z,6.59
2023-02-02T02:27:46.728Z,6.42
2023-02-02T02:28:46.709Z,6.41
2023-02-02T02:29:46.706Z,6.62
2023-02-02T02:30:46.743Z,6.60
2023-02-02T02:31:46.799Z,6.64
2023-02-02T02:32:47.680Z,6.63
2023-02-02T02:33:46.662Z,6.63
2023-02-02T02:34:46.640Z,6.63
2023-02-02T02:35:47.648Z,6.69
2023-02-02T02:36:46.670Z,6.72
2023-02-02T02:37:46.607Z,6.62
2023-02-02T02:38:46.598Z,6.56
2023-02-02T02:39:46.625Z,6.60
2023-02-02T02:40:46.617Z,6.56
2023-02-02T02:41:47.603Z,6.63
2023-02-02T02:42:46.564Z,6.63
2023-02-02T02:43:47.572Z,6.62
2023-02-02T02:44:47.557Z,6.42
2023-02-02T02:45:46.524Z,6.56
2023-02-02T02:46:46.523Z,6.56
2023-02-02T02:47:46.513Z,6.59
2023-02-02T02:48:46.487Z,6.63
2023-02-02T02:49:46.499Z,6.62
2023-02-02T02:50:46.465Z,6.69
2023-02-02T02:51:46.447Z,6.75
2023-02-02T02:52:46.473Z,6.84
2023-02-02T02:53:46.476Z,6.82
2023-02-02T02:54:46.438Z,6.78
2023-02-02T02:55:47.419Z,6.78
2023-02-02T02:56:46.431Z,6.81
2023-02-02T02:57:46.408Z,6.78
2023-02-02T02:58:46.415Z,6.81
2023-02-02T02:59:46.355Z,6.74
2023-02-02T03:00:46.378Z,6.85
2023-02-02T03:01:46.424Z,6.92
2023-02-02T03:02:46.360Z,6.84
2023-02-02T03:03:46.325Z,6.79
2023-02-02T03:04:46.799Z,6.84
2023-02-02T03:05:46.341Z,6.82
2023-02-02T03:06:46.295Z,6.87
2023-02-02T03:07:47.284Z,7.02
2023-02-02T03:08:46.277Z,6.92
2023-02-02T03:09:46.290Z,6.92
2023-02-02T03:10:47.296Z,7.10
2023-02-02T03:11:46.250Z,7.02
2023-02-02T03:12:46.250Z,6.89
2023-02-02T03:13:46.236Z,6.84
2023-02-02T03:14:46.216Z,6.96
2023-02-02T03:15:46.225Z,6.97
2023-02-02T03:16:46.209Z,6.92
2023-02-02T03:17:46.215Z,6.84
2023-02-02T03:18:46.179Z,6.81
2023-02-02T03:19:47.146Z,6.95
2023-02-02T03:20:46.213Z,6.81
2023-02-02T03:21:46.176Z,6.89
2023-02-02T03:22:47.127Z,6.88
2023-02-02T03:23:47.146Z,6.82
2023-02-02T03:24:46.102Z,6.78
2023-02-02T03:25:47.096Z,6.89
2023-02-02T03:26:46.122Z,6.87
2023-02-02T03:27:46.097Z,6.88
2023-02-02T03:28:46.093Z,6.79
2023-02-02T03:29:46.113Z,6.81
2023-02-02T03:30:46.273Z,6.63
2023-02-02T03:31:46.101Z,6.63
2023-02-02T03:32:46.012Z,6.60
2023-02-02T03:33:47.031Z,6.69
2023-02-02T03:34:46.013Z,6.64
2023-02-02T03:35:45.993Z,6.70
2023-02-02T03:36:45.992Z,6.78
2023-02-02T03:37:45.978Z,6.84
2023-02-02T03:38:46.987Z,6.70
2023-02-02T03:39:46.978Z,6.60
2023-02-02T03:40:45.954Z,6.70
2023-02-02T03:41:46.926Z,6.75
2023-02-02T03:42:45.917Z,6.79
2023-02-02T03:43:45.916Z,6.81
2023-02-02T03:44:45.906Z,6.77
2023-02-02T03:45:45.890Z,6.84
2023-02-02T03:46:45.930Z,6.84
2023-02-02T03:47:45.864Z,6.96
2023-02-02T03:48:45.909Z,6.96
2023-02-02T03:49:45.824Z,6.88
2023-02-02T03:50:45.837Z,6.85
2023-02-02T03:51:45.828Z,6.87
2023-02-02T03:52:46.809Z,6.78
2023-02-02T03:53:46.857Z,6.81
2023-02-02T03:54:45.789Z,6.84
2023-02-02T03:55:45.768Z,6.88
2023-02-02T03:56:45.779Z,6.87
2023-02-02T03:57:45.758Z,7.02
2023-02-02T03:58:45.735Z,6.97
2023-02-02T03:59:45.750Z,6.93
2023-02-02T04:00:45.708Z,6.82
2023-02-02T04:01:45.736Z,6.85
2023-02-02T04:02:45.815Z,6.82
2023-02-02T04:03:45.703Z,6.85
2023-02-02T04:04:45.701Z,6.88
2023-02-02T04:05:45.667Z,6.87
2023-02-02T04:06:45.663Z,6.78
2023-02-02T04:07:45.635Z,6.81
2023-02-02T04:08:46.658Z,6.87
2023-02-02T04:09:45.626Z,6.89
2023-02-02T04:10:45.608Z,6.89
2023-02-02T04:11:45.627Z,6.88
2023-02-02T04:12:45.594Z,6.87
2023-02-02T04:13:45.623Z,6.88
2023-02-02T04:14:45.579Z,6.70
2023-02-02T04:15:45.602Z,6.69
2023-02-02T04:16:45.541Z,6.72
2023-02-02T04:17:45.536Z,6.82
2023-02-02T04:18:46.540Z,6.72
2023-02-02T04:19:45.509Z,6.88
2023-02-02T04:20:45.512Z,6.87
2023-02-02T04:21:46.476Z,6.70
2023-02-02T04:22:45.485Z,6.69
2023-02-02T04:23:45.485Z,6.78
2023-02-02T04:24:45.479Z,6.72
2023-02-02T04:25:46.476Z,6.63
2023-02-02T04:26:45.539Z,6.77
2023-02-02T04:27:46.420Z,6.70
2023-02-02T04:28:45.459Z,6.78
2023-02-02T04:29:46.393Z,6.64
2023-02-02T04:30:46.523Z,6.81
2023-02-02T04:31:45.483Z,6.70
2023-02-02T04:32:46.369Z,6.70
2023-02-02T04:33:46.382Z,6.74
2023-02-02T04:34:45.365Z,6.82
2023-02-02T04:35:45.375Z,6.84
2023-02-02T04:36:45.390Z,6.67
2023-02-02T04:37:45.317Z,6.70
2023-02-02T04:38:45.325Z,6.70
2023-02-02T04:39:46.324Z,6.81
2023-02-02T04:40:45.321Z,6.78
2023-02-02T04:41:45.282Z,6.67
2023-02-02T04:42:45.291Z,6.85
2023-02-02T04:43:45.300Z,6.82
2023-02-02T04:44:45.273Z,6.78
2023-02-02T04:45:46.303Z,6.85
2023-02-02T04:46:45.243Z,6.81
2023-02-02T04:47:46.228Z,6.89
2023-02-02T04:48:45.228Z,6.88
2023-02-02T04:49:45.197Z,6.87
2023-02-02T04:50:45.180Z,6.87
2023-02-02T04:51:45.197Z,6.99
2023-02-02T04:52:45.176Z,7.00
2023-02-02T04:53:46.150Z,7.10
2023-02-02T04:54:45.140Z,7.02
2023-02-02T04:55:45.167Z,7.02
2023-02-02T04:56:45.128Z,6.99
2023-02-02T04:57:45.111Z,6.85
2023-02-02T04:58:45.081Z,7.00
2023-02-02T04:59:45.075Z,6.78
2023-02-02T05:00:45.096Z,6.78
2023-02-02T05:01:45.080Z,6.79
2023-02-02T05:02:45.122Z,6.84
2023-02-02T05:03:45.051Z,6.81
2023-02-02T05:04:45.056Z,6.88
2023-02-02T05:05:45.028Z,6.87
2023-02-02T05:06:45.023Z,6.79
2023-02-02T05:07:45.007Z,6.69
2023-02-02T05:08:45.017Z,6.67
2023-02-02T05:09:44.966Z,6.78
2023-02-02T05:10:45.959Z,6.78
2023-02-02T05:11:44.972Z,6.82
2023-02-02T05:12:45.962Z,6.78
2023-02-02T05:13:45.956Z,6.77
2023-02-02T05:14:44.935Z,6.77
2023-02-02T05:15:44.903Z,6.81
2023-02-02T05:16:44.944Z,6.67
2023-02-02T05:17:45.884Z,6.78
2023-02-02T05:18:44.867Z,6.59
2023-02-02T05:19:45.898Z,6.74
2023-02-02T05:20:44.849Z,6.70
2023-02-02T05:21:46.261Z,6.57
2023-02-02T05:22:44.837Z,6.60
2023-02-02T05:23:44.856Z,6.62
2023-02-02T05:24:44.807Z,6.63
2023-02-02T05:25:44.821Z,6.70
2023-02-02T05:26:45.857Z,6.63
2023-02-02T05:27:44.795Z,6.66
2023-02-02T05:28:44.765Z,6.60
2023-02-02T05:29:44.769Z,6.56
2023-02-02T05:30:44.779Z,6.59
2023-02-02T05:31:44.814Z,6.64
2023-02-02T05:32:44.759Z,6.59
2023-02-02T05:33:44.729Z,6.60
2023-02-02T05:34:44.719Z,6.75
2023-02-02T05:35:44.738Z,6.67
2023-02-02T05:36:44.683Z,6.75
2023-02-02T05:37:44.721Z,6.69
2023-02-02T05:38:44.686Z,6.78
2023-02-02T05:39:44.712Z,6.82
2023-02-02T05:40:44.633Z,6.78
2023-02-02T05:41:44.657Z,6.85
2023-02-02T05:42:44.628Z,6.70
2023-02-02T05:43:45.664Z,6.72
2023-02-02T05:44:44.593Z,6.78
2023-02-02T05:45:44.638Z,6.69
2023-02-02T05:46:44.569Z,6.84
2023-02-02T05:47:44.603Z,6.81
2023-02-02T05:48:44.561Z,6.63
2023-02-02T05:49:44.578Z,6.69
2023-02-02T05:50:44.593Z,6.79
2023-02-02T05:51:44.540Z,6.82
2023-02-02T05:52:44.545Z,6.67
2023-02-02T05:53:44.494Z,6.75
2023-02-02T05:54:44.519Z,6.75
2023-02-02T05:55:45.508Z,6.64
2023-02-02T05:56:44.468Z,6.59
2023-02-02T05:57:44.478Z,6.70
2023-02-02T05:58:44.477Z,6.59
2023-02-02T05:59:45.470Z,6.74
2023-02-02T06:00:44.450Z,6.60
2023-02-02T06:01:44.440Z,6.63
2023-02-02T06:02:45.502Z,6.63
2023-02-02T06:03:44.462Z,6.57
2023-02-02T06:04:44.412Z,6.60
2023-02-02T06:05:44.410Z,6.63
2023-02-02T06:06:44.379Z,6.63
2023-02-02T06:07:44.384Z,6.77
2023-02-02T06:08:44.382Z,6.78
2023-02-02T06:09:44.398Z,6.72
2023-02-02T06:10:44.326Z,6.78
2023-02-02T06:11:44.333Z,6.77
2023-02-02T06:12:44.321Z,6.82
2023-02-02T06:13:45.953Z,6.89
2023-02-02T06:14:44.315Z,7.00
2023-02-02T06:15:44.335Z,6.96
2023-02-02T06:16:44.282Z,7.02
2023-02-02T06:17:44.286Z,6.87
2023-02-02T06:18:44.277Z,6.59
2023-02-02T06:19:44.250Z,6.52
2023-02-02T06:20:44.208Z,6.48
2023-02-02T06:21:44.224Z,6.49
2023-02-02T06:22:44.203Z,6.41
2023-02-02T06:23:44.272Z,6.44
2023-02-02T06:24:45.194Z,6.41
2023-02-02T06:25:44.185Z,6.33
2023-02-02T06:26:44.197Z,6.24
2023-02-02T06:27:44.155Z,6.46
2023-02-02T06:28:44.184Z,6.45
2023-02-02T06:29:44.144Z,6.45
2023-02-02T06:30:45.272Z,6.42
2023-02-02T06:31:44.193Z,6.39
2023-02-02T06:32:44.091Z,6.39
2023-02-02T06:33:44.079Z,6.51
2023-02-02T06:34:44.120Z,6.51
2023-02-02T06:35:44.065Z,6.54
2023-02-02T06:36:44.073Z,6.51
2023-02-02T06:37:45.031Z,6.51
2023-02-02T06:38:45.046Z,6.64
2023-02-02T06:39:45.062Z,6.62
2023-02-02T06:40:44.097Z,6.62
2023-02-02T06:41:44.001Z,6.62
2023-02-02T06:42:45.018Z,6.70
2023-02-02T06:43:43.998Z,6.57
2023-02-02T06:44:43.952Z,6.63
2023-02-02T06:45:43.984Z,6.70
2023-02-02T06:46:43.951Z,6.63
2023-02-02T06:47:43.968Z,6.57
2023-02-02T06:48:43.930Z,6.59
2023-02-02T06:49:43.898Z,6.64
2023-02-02T06:50:43.924Z,6.59
2023-02-02T06:51:43.882Z,6.67
2023-02-02T06:52:44.905Z,6.70
2023-02-02T06:53:43.882Z,6.72
2023-02-02T06:54:43.860Z,6.69
2023-02-02T06:55:43.862Z,6.69
2023-02-02T06:56:43.847Z,6.93
2023-02-02T06:57:43.832Z,6.87
2023-02-02T06:58:43.857Z,6.97
2023-02-02T06:59:43.823Z,7.00
2023-02-02T07:00:44.789Z,6.88
2023-02-02T07:01:43.843Z,6.78
2023-02-02T07:02:43.850Z,6.84
2023-02-02T07:03:43.780Z,6.95
2023-02-02T07:04:43.750Z,6.81
2023-02-02T07:05:43.751Z,6.75
2023-02-02T07:06:43.767Z,6.70
2023-02-02T07:07:44.714Z,6.63
2023-02-02T07:08:43.699Z,6.70
2023-02-02T07:09:43.717Z,6.84
2023-02-02T07:11:11.512Z,6.92
2023-02-02T07:11:45.253Z,7.03
2023-02-02T07:12:43.658Z,6.81
2023-02-02T07:13:43.661Z,6.89
2023-02-02T07:14:43.652Z,7.05
2023-02-02T07:15:43.702Z,6.93
2023-02-02T07:16:44.623Z,7.05
2023-02-02T07:17:43.627Z,7.02
2023-02-02T07:18:43.642Z,7.03
2023-02-02T07:19:43.586Z,7.06
2023-02-02T07:20:43.574Z,7.00
2023-02-02T07:21:43.555Z,7.15
2023-02-02T07:22:43.571Z,7.33
2023-02-02T07:23:43.582Z,7.07
2023-02-02T07:24:43.563Z,7.24
2023-02-02T07:25:43.966Z,7.18
2023-02-02T07:26:43.589Z,7.15
2023-02-02T07:27:43.533Z,7.23
2023-02-02T07:28:43.545Z,7.28
2023-02-02T07:29:43.497Z,7.14
2023-02-02T07:30:43.589Z,7.33
2023-02-02T07:31:43.587Z,7.28
2023-02-02T07:32:43.435Z,7.23
2023-02-02T07:33:43.449Z,7.23
2023-02-02T07:34:43.464Z,7.33
2023-02-02T07:35:43.419Z,7.24
2023-02-02T07:36:44.395Z,7.42
2023-02-02T07:37:43.385Z,7.36
2023-02-02T07:38:43.397Z,7.33
2023-02-02T07:39:44.380Z,7.42
2023-02-02T07:40:43.403Z,7.48
2023-02-02T07:41:43.355Z,7.47
2023-02-02T07:42:46.363Z,7.54
2023-02-02T07:43:43.346Z,7.56
2023-02-02T07:44:43.328Z,7.60
2023-02-02T07:45:43.338Z,7.48
2023-02-02T07:46:43.362Z,7.39
2023-02-02T07:47:43.295Z,7.35
2023-02-02T07:48:43.334Z,7.38
2023-02-02T07:49:43.314Z,7.28
2023-02-02T07:50:44.367Z,7.29
2023-02-02T07:51:47.558Z,7.43
2023-02-02T07:52:43.239Z,7.47
2023-02-02T07:53:44.247Z,7.45
2023-02-02T07:54:43.203Z,7.53
2023-02-02T07:55:43.223Z,7.47
2023-02-02T07:56:43.206Z,7.39
2023-02-02T07:57:43.206Z,7.42
2023-02-02T07:58:50.322Z,7.57
2023-02-02T07:59:43.151Z,7.72
2023-02-02T08:00:44.209Z,7.72
2023-02-02T08:01:43.177Z,7.83
2023-02-02T08:02:43.209Z,7.90
2023-02-02T08:03:43.160Z,7.91
2023-02-02T08:04:43.144Z,7.75
2023-02-02T08:05:43.094Z,7.88
2023-02-02T08:06:43.100Z,7.80
2023-02-02T08:07:43.148Z,7.87
2023-02-02T08:08:43.107Z,7.97
2023-02-02T08:09:44.077Z,7.91
2023-02-02T08:10:43.063Z,7.95
2023-02-02T08:11:44.100Z,7.93
2023-02-02T08:12:43.018Z,7.90
2023-02-02T08:13:43.012Z,7.90
2023-02-02T08:14:43.009Z,7.75
2023-02-02T08:15:42.983Z,7.85
2023-02-02T08:16:42.987Z,7.77
2023-02-02T08:17:43.976Z,7.73
2023-02-02T08:18:42.948Z,7.73
2023-02-02T08:19:42.978Z,7.82
2023-02-02T08:20:42.931Z,7.75
2023-02-02T08:21:42.957Z,7.82
2023-02-02T08:22:43.897Z,7.87
2023-02-02T08:23:43.895Z,7.94
2023-02-02T08:24:42.873Z,7.70
2023-02-02T08:25:43.896Z,7.85
2023-02-02T08:26:43.933Z,7.83
2023-02-02T08:27:43.863Z,7.85
2023-02-02T08:28:42.853Z,7.77
2023-02-02T08:29:42.832Z,7.73
2023-02-02T08:30:42.889Z,7.85
2023-02-02T08:31:42.891Z,7.94
2023-02-02T08:32:42.823Z,7.95
2023-02-02T08:33:42.816Z,7.82
2023-02-02T08:34:42.809Z,7.75
2023-02-02T08:35:42.764Z,7.79
2023-02-02T08:36:43.748Z,7.83
2023-02-02T08:37:43.733Z,7.82
2023-02-02T08:38:43.806Z,7.75
2023-02-02T08:39:42.739Z,7.87
2023-02-02T08:40:43.695Z,7.94
2023-02-02T08:41:42.709Z,8.05
2023-02-02T08:42:42.680Z,7.98
2023-02-02T08:43:42.706Z,7.97
2023-02-02T08:46:00.434Z,7.91
2023-02-02T08:46:01.092Z,7.97
2023-02-02T08:46:43.709Z,7.85
2023-02-02T08:47:42.613Z,7.91
2023-02-02T08:48:42.757Z,8.05
2023-02-02T08:49:42.616Z,8.03
2023-02-02T08:50:43.591Z,8.05
2023-02-02T08:51:42.619Z,8.06
2023-02-02T08:52:42.582Z,8.13
2023-02-02T08:53:42.722Z,8.05
2023-02-02T08:54:42.541Z,8.15
2023-02-02T08:55:42.635Z,8.18
2023-02-02T08:56:42.541Z,8.05
2023-02-02T08:57:42.523Z,7.93
2023-02-02T08:58:42.538Z,8.05
2023-02-02T08:59:42.604Z,7.94
2023-02-02T09:00:42.523Z,7.75
2023-02-02T09:01:42.507Z,7.73
2023-02-02T09:02:42.481Z,7.93
2023-02-02T09:03:42.454Z,7.97
2023-02-02T09:04:42.464Z,7.98
2023-02-02T09:05:43.600Z,7.98
2023-02-02T09:06:42.410Z,8.09
2023-02-02T09:07:42.425Z,8.00
2023-02-02T09:08:42.473Z,8.12
2023-02-02T09:09:42.383Z,8.19
2023-02-02T09:10:42.386Z,8.30
2023-02-02T09:11:43.376Z,8.31
2023-02-02T09:12:42.355Z,8.36
2023-02-02T09:13:42.371Z,8.26
2023-02-02T09:14:43.316Z,8.30
2023-02-02T09:15:43.321Z,8.33
2023-02-02T09:16:42.378Z,8.30
2023-02-02T09:17:42.330Z,8.41
2023-02-02T09:18:42.301Z,8.33
2023-02-02T09:19:42.276Z,8.41
2023-02-02T09:20:43.265Z,8.42
2023-02-02T09:21:42.252Z,8.45
2023-02-02T09:22:42.600Z,8.53
2023-02-02T09:23:42.235Z,8.56
2023-02-02T09:24:42.223Z,8.52
2023-02-02T09:25:43.223Z,8.44
2023-02-02T09:26:43.240Z,8.60
2023-02-02T09:27:42.171Z,8.56
2023-02-02T09:28:42.177Z,8.51
2023-02-02T09:29:42.186Z,8.53
2023-02-02T09:30:42.188Z,8.46
2023-02-02T09:31:42.221Z,8.56
2023-02-02T09:32:43.125Z,8.74
2023-02-02T09:33:42.115Z,8.74
2023-02-02T09:34:42.185Z,8.64
2023-02-02T09:35:42.137Z,8.63
2023-02-02T09:36:43.133Z,8.55
2023-02-02T09:37:42.086Z,8.64
2023-02-02T09:38:43.051Z,8.53
2023-02-02T09:39:42.066Z,8.55
2023-02-02T09:40:42.035Z,8.74
2023-02-02T09:41:42.078Z,8.81
2023-02-02T09:42:42.575Z,8.70
2023-02-02T09:43:42.034Z,8.81
2023-02-02T09:44:43.008Z,8.73
2023-02-02T09:45:41.993Z,8.70
2023-02-02T09:46:41.959Z,8.69
2023-02-02T09:47:42.997Z,8.74
2023-02-02T09:48:42.982Z,8.73
2023-02-02T09:49:42.939Z,8.82
2023-02-02T09:50:41.952Z,8.71
2023-02-02T09:51:41.917Z,8.92
2023-02-02T09:52:42.914Z,8.92
2023-02-02T09:53:54.797Z,8.89
2023-02-02T09:54:42.934Z,8.81
2023-02-02T09:55:41.861Z,8.84
2023-02-02T09:56:42.874Z,8.85
2023-02-02T09:57:41.867Z,8.78
2023-02-02T09:58:41.877Z,8.81
2023-02-02T09:59:41.898Z,8.95
2023-02-02T10:00:42.839Z,8.92
2023-02-02T10:01:41.837Z,9.11
2023-02-02T10:02:41.787Z,9.13
2023-02-02T10:03:42.901Z,8.91
2023-02-02T10:04:41.815Z,8.88
2023-02-02T10:05:41.808Z,8.73
2023-02-02T10:06:41.775Z,8.87
2023-02-02T10:07:41.737Z,8.89
2023-02-02T10:08:41.745Z,8.91
2023-02-02T10:09:41.753Z,8.91
2023-02-02T10:10:41.749Z,8.92
2023-02-02T10:11:42.746Z,8.95
2023-02-02T10:12:41.688Z,9.08
2023-02-02T10:13:42.679Z,9.11
2023-02-02T10:14:41.686Z,9.11
2023-02-02T10:15:41.751Z,9.11
2023-02-02T10:16:41.677Z,8.89
2023-02-02T10:17:42.710Z,9.11
2023-02-02T10:18:41.605Z,9.10
2023-02-02T10:19:41.596Z,9.18
2023-02-02T10:20:41.641Z,9.13
2023-02-02T10:21:41.590Z,9.10
2023-02-02T10:22:41.605Z,9.00
2023-02-02T10:23:41.614Z,9.00
2023-02-02T10:24:41.544Z,9.04
2023-02-02T10:25:42.535Z,9.03
2023-02-02T10:26:41.607Z,8.91
2023-02-02T10:27:41.547Z,8.94
2023-02-02T10:28:41.526Z,8.99
2023-02-02T10:29:48.918Z,8.95
2023-02-02T10:30:42.596Z,8.99
2023-02-02T10:31:42.632Z,8.88
2023-02-02T10:32:41.499Z,8.94
2023-02-02T10:33:41.484Z,9.14
2023-02-02T10:34:41.511Z,9.19
2023-02-02T10:35:41.469Z,9.28
2023-02-02T10:36:42.034Z,9.32
2023-02-02T10:37:41.415Z,9.40
2023-02-02T10:38:41.470Z,9.29
2023-02-02T10:39:41.436Z,9.31
2023-02-02T10:40:41.416Z,9.47
2023-02-02T10:41:41.456Z,9.48
2023-02-02T10:42:41.345Z,9.31
2023-02-02T10:43:41.346Z,9.32
2023-02-02T10:44:41.323Z,9.10
2023-02-02T10:45:41.329Z,9.18
2023-02-02T10:46:41.418Z,9.11
2023-02-02T10:47:41.346Z,9.08
2023-02-02T10:48:41.279Z,8.87
2023-02-02T10:49:41.287Z,8.84
2023-02-02T10:50:42.315Z,9.04
2023-02-02T10:51:41.344Z,9.08
2023-02-02T10:52:41.250Z,9.14
2023-02-02T10:53:41.279Z,9.23
2023-02-02T10:54:55.499Z,9.25
2023-02-02T10:55:42.236Z,9.40
2023-02-02T10:56:41.197Z,9.31
2023-02-02T10:57:41.218Z,8.99
2023-02-02T10:58:42.180Z,8.87
2023-02-02T10:59:41.226Z,8.94
2023-02-02T11:00:41.213Z,9.02
2023-02-02T11:01:41.239Z,9.11
2023-02-02T11:02:41.191Z,9.19
2023-02-02T11:03:41.123Z,9.21
2023-02-02T11:04:41.106Z,9.19
2023-02-02T11:05:42.157Z,9.21
2023-02-02T11:06:41.080Z,9.08
2023-02-02T11:07:41.102Z,9.06
2023-02-02T11:08:41.084Z,8.91
2023-02-02T11:09:41.065Z,8.81
2023-02-02T11:10:41.067Z,8.84
2023-02-02T11:11:41.112Z,8.87
2023-02-02T11:12:41.049Z,8.92
2023-02-02T11:13:41.050Z,8.92
2023-02-02T11:14:45.024Z,8.94
2023-02-02T11:15:42.001Z,8.88
2023-02-02T11:16:44.088Z,8.99
2023-02-02T11:17:40.983Z,9.13
2023-02-02T11:18:42.874Z,9.26
2023-02-02T11:19:40.968Z,9.13
2023-02-02T11:20:40.962Z,9.16
2023-02-02T11:21:40.941Z,9.19
2023-02-02T11:22:40.920Z,9.13
2023-02-02T11:23:40.909Z,9.03
2023-02-02T11:24:40.922Z,8.97
2023-02-02T11:25:41.891Z,9.11
2023-02-02T11:26:40.987Z,9.11
2023-02-02T11:27:40.848Z,9.18
2023-02-02T11:28:40.884Z,9.23
2023-02-02T11:29:40.877Z,9.41
2023-02-02T11:30:40.864Z,9.46
2023-02-02T11:31:40.867Z,9.23
2023-02-02T11:32:40.819Z,9.48
2023-02-02T11:33:40.878Z,9.64
2023-02-02T11:34:40.774Z,9.54
2023-02-02T11:35:40.802Z,9.55
2023-02-02T11:36:40.805Z,9.65
2023-02-02T11:37:40.773Z,9.62
2023-02-02T11:38:40.739Z,9.58
2023-02-02T11:39:40.724Z,9.59
2023-02-02T11:40:40.708Z,9.50
2023-02-02T11:41:40.732Z,9.44
2023-02-02T11:42:40.744Z,9.44
2023-02-02T11:43:40.710Z,9.58
2023-02-02T11:44:40.686Z,9.58
2023-02-02T11:45:40.663Z,9.47
2023-02-02T11:46:41.710Z,9.47
2023-02-02T11:47:40.641Z,9.44
2023-02-02T11:48:41.650Z,9.32
2023-02-02T11:49:40.652Z,9.46
2023-02-02T11:50:40.662Z,9.47
2023-02-02T11:51:40.613Z,9.47
2023-02-02T11:52:40.603Z,9.48
2023-02-02T11:53:40.592Z,9.56
2023-02-02T11:54:41.549Z,9.47
2023-02-02T11:55:40.607Z,9.43
2023-02-02T11:56:40.584Z,9.31
2023-02-02T11:57:40.518Z,9.28
2023-02-02T11:58:40.534Z,9.22
2023-02-02T11:59:40.521Z,9.25
2023-02-02T12:00:40.493Z,9.40
2023-02-02T12:01:40.592Z,9.32
2023-02-02T12:02:40.510Z,9.46
2023-02-02T12:03:41.531Z,9.31
2023-02-02T12:04:40.469Z,9.29
2023-02-02T12:05:40.459Z,9.47
2023-02-02T12:06:40.427Z,9.56
2023-02-02T12:07:41.455Z,9.51
2023-02-02T12:08:41.417Z,9.43
2023-02-02T12:09:40.412Z,9.39
2023-02-02T12:10:40.423Z,9.47
2023-02-02T12:11:40.449Z,9.54
2023-02-02T12:12:41.388Z,9.44
2023-02-02T12:13:40.372Z,9.26
2023-02-02T12:14:40.346Z,9.46
2023-02-02T12:15:40.353Z,9.47
2023-02-02T12:16:41.358Z,9.61
2023-02-02T12:17:40.308Z,9.56
2023-02-02T12:18:41.301Z,9.56
2023-02-02T12:19:40.316Z,9.44
2023-02-02T12:20:40.277Z,9.48
2023-02-02T12:21:40.285Z,9.41
2023-02-02T12:22:41.261Z,9.40
2023-02-02T12:23:40.237Z,9.44
2023-02-02T12:24:40.248Z,9.54
2023-02-02T12:25:40.210Z,9.46
2023-02-02T12:26:41.340Z,9.72
2023-02-02T12:27:40.221Z,9.77
2023-02-02T12:28:40.194Z,9.80
2023-02-02T12:29:40.181Z,9.79
2023-02-02T12:30:40.234Z,9.84
2023-02-02T12:31:40.209Z,9.83
2023-02-02T12:32:40.165Z,9.79
2023-02-02T12:33:40.162Z,9.68
2023-02-02T12:34:40.125Z,9.74
2023-02-02T12:35:40.114Z,9.72
2023-02-02T12:36:40.129Z,9.65
2023-02-02T12:37:41.102Z,9.62
2023-02-02T12:38:41.103Z,9.44
2023-02-02T12:39:40.100Z,9.43
2023-02-02T12:40:41.059Z,9.51
2023-02-02T12:41:40.073Z,9.56
2023-02-02T12:42:40.056Z,9.72
2023-02-02T12:43:41.041Z,9.74
2023-02-02T12:44:40.015Z,9.74
2023-02-02T12:45:40.065Z,9.87
2023-02-02T12:46:40.038Z,9.98
2023-02-02T12:47:39.993Z,10.01
2023-02-02T12:48:39.957Z,9.95
2023-02-02T12:49:40.971Z,9.86
2023-02-02T12:50:40.002Z,9.94
2023-02-02T12:51:40.942Z,10.05
2023-02-02T12:52:39.920Z,10.09
2023-02-02T12:53:39.926Z,10.05
2023-02-02T12:54:44.629Z,10.04
2023-02-02T12:55:40.890Z,10.02
2023-02-02T12:56:39.902Z,9.89
2023-02-02T12:57:40.967Z,9.84
2023-02-02T12:58:39.864Z,9.84
2023-02-02T12:59:39.870Z,9.65
2023-02-02T13:00:40.931Z,9.68
2023-02-02T13:01:39.823Z,9.59
2023-02-02T13:02:40.840Z,9.72
2023-02-02T13:03:39.835Z,9.72
2023-02-02T13:04:39.812Z,9.61
2023-02-02T13:05:39.803Z,9.69
2023-02-02T13:06:39.774Z,9.59
2023-02-02T13:07:39.782Z,9.47
2023-02-02T13:08:39.744Z,9.47
2023-02-02T13:09:39.727Z,9.47
2023-02-02T13:10:40.759Z,9.46
2023-02-02T13:11:40.725Z,9.34
2023-02-02T13:12:39.709Z,9.51
2023-02-02T13:13:39.708Z,9.58
2023-02-02T13:14:39.688Z,9.68
2023-02-02T13:15:39.677Z,9.84
2023-02-02T13:16:39.719Z,9.64
2023-02-02T13:17:39.641Z,9.66
2023-02-02T13:18:40.684Z,9.66